createdAt,value
2022-12-25T00:00:13.813Z,969.07
2022-12-25T00:01:10.390Z,969.01
2022-12-25T00:02:09.280Z,969.02
2022-12-25T00:03:09.417Z,969.00
2022-12-25T00:04:09.294Z,969.00
2022-12-25T00:05:09.207Z,968.94
2022-12-25T00:06:09.199Z,968.96
2022-12-25T00:07:09.179Z,968.96
2022-12-25T00:08:09.204Z,968.97
2022-12-25T00:09:09.144Z,968.89
2022-12-25T00:10:09.126Z,968.92
2022-12-25T00:11:10.109Z,968.91
2022-12-25T00:12:09.104Z,968.94
2022-12-25T00:13:09.106Z,968.98
2022-12-25T00:14:09.091Z,969.04
2022-12-25T00:15:09.034Z,969.04
2022-12-25T00:16:09.106Z,969.03
2022-12-25T00:17:08.997Z,969.02
2022-12-25T00:18:09.011Z,968.99
2022-12-25T00:19:08.957Z,968.95
2022-12-25T00:20:08.961Z,968.99
2022-12-25T00:21:08.926Z,969.07
2022-12-25T00:22:08.925Z,969.10
2022-12-25T00:23:08.917Z,969.14
2022-12-25T00:24:08.870Z,969.13
2022-12-25T00:25:08.870Z,969.02
2022-12-25T00:26:08.844Z,969.04
2022-12-25T00:27:08.839Z,969.00
2022-12-25T00:28:08.855Z,968.99
2022-12-25T00:29:08.796Z,969.05
2022-12-25T00:30:08.767Z,969.07
2022-12-25T00:31:08.809Z,969.13
2022-12-25T00:32:08.735Z,969.12
2022-12-25T00:33:08.773Z,969.14
2022-12-25T00:34:08.697Z,969.12
2022-12-25T00:35:08.688Z,969.10
2022-12-25T00:36:08.681Z,969.13
2022-12-25T00:37:08.662Z,969.13
2022-12-25T00:38:08.669Z,969.12
2022-12-25T00:39:08.622Z,969.06
2022-12-25T00:40:08.623Z,969.12
2022-12-25T00:41:08.583Z,969.12
2022-12-25T00:42:08.570Z,969.19
2022-12-25T00:43:08.592Z,969.22
2022-12-25T00:44:08.540Z,969.23
2022-12-25T00:45:08.516Z,969.21
2022-12-25T00:46:08.525Z,969.20
2022-12-25T00:47:08.535Z,969.27
2022-12-25T00:48:08.498Z,969.24
2022-12-25T00:49:08.454Z,969.17
2022-12-25T00:50:08.426Z,969.28
2022-12-25T00:51:08.408Z,969.27
2022-12-25T00:52:08.403Z,969.30
2022-12-25T00:53:08.416Z,969.24
2022-12-25T00:54:08.368Z,969.24
2022-12-25T00:55:08.350Z,969.22
2022-12-25T00:56:08.482Z,969.22
2022-12-25T00:57:08.520Z,969.23
2022-12-25T00:58:08.453Z,969.30
2022-12-25T00:59:08.265Z,969.24
2022-12-25T01:00:08.277Z,969.36
2022-12-25T01:01:08.342Z,969.35
2022-12-25T01:02:08.332Z,969.40
2022-12-25T01:03:08.300Z,969.45
2022-12-25T01:04:08.180Z,969.43
2022-12-25T01:05:08.180Z,969.57
2022-12-25T01:06:08.144Z,969.55
2022-12-25T01:07:08.141Z,969.57
2022-12-25T01:08:08.148Z,969.56
2022-12-25T01:09:08.102Z,969.59
2022-12-25T01:10:08.080Z,969.55
2022-12-25T01:11:08.072Z,969.55
2022-12-25T01:12:08.038Z,969.56
2022-12-25T01:13:08.076Z,969.53
2022-12-25T01:14:08.020Z,969.53
2022-12-25T01:15:07.993Z,969.52
2022-12-25T01:16:08.035Z,969.53
2022-12-25T01:17:07.961Z,969.45
2022-12-25T01:18:09.820Z,969.54
2022-12-25T01:19:08.962Z,969.53
2022-12-25T01:20:07.938Z,969.47
2022-12-25T01:21:07.891Z,969.55
2022-12-25T01:22:07.881Z,969.52
2022-12-25T01:23:08.160Z,969.52
2022-12-25T01:24:07.863Z,969.50
2022-12-25T01:25:07.815Z,969.52
2022-12-25T01:26:07.821Z,969.48
2022-12-25T01:27:07.795Z,969.47
2022-12-25T01:28:07.780Z,969.48
2022-12-25T01:29:07.782Z,969.53
2022-12-25T01:30:07.734Z,969.56
2022-12-25T01:31:07.749Z,969.58
2022-12-25T01:32:08.530Z,969.57
2022-12-25T01:33:07.677Z,969.56
2022-12-25T01:34:07.711Z,969.54
2022-12-25T01:35:07.652Z,969.56
2022-12-25T01:36:07.618Z,969.62
2022-12-25T01:37:07.621Z,969.53
2022-12-25T01:38:07.586Z,969.50
2022-12-25T01:39:07.604Z,969.53
2022-12-25T01:40:07.561Z,969.51
2022-12-25T01:41:07.553Z,969.51
2022-12-25T01:42:07.520Z,969.50
2022-12-25T01:43:07.505Z,969.55
2022-12-25T01:44:07.543Z,969.50
2022-12-25T01:45:07.475Z,969.52
2022-12-25T01:46:07.540Z,969.55
2022-12-25T01:47:07.442Z,969.58
2022-12-25T01:48:07.463Z,969.54
2022-12-25T01:49:07.431Z,969.56
2022-12-25T01:50:07.404Z,969.62
2022-12-25T01:51:07.375Z,969.51
2022-12-25T01:52:07.351Z,969.51
2022-12-25T01:53:07.328Z,969.54
2022-12-25T01:54:07.331Z,969.54
2022-12-25T01:55:07.291Z,969.51
2022-12-25T01:56:07.278Z,969.51
2022-12-25T01:57:07.261Z,969.55
2022-12-25T01:58:07.241Z,969.47
2022-12-25T01:59:07.276Z,969.53
2022-12-25T02:00:07.214Z,969.59
2022-12-25T02:01:07.237Z,969.55
2022-12-25T02:02:07.283Z,969.63
2022-12-25T02:03:08.216Z,969.58
2022-12-25T02:04:07.157Z,969.54
2022-12-25T02:05:07.116Z,969.62
2022-12-25T02:06:07.119Z,969.67
2022-12-25T02:07:07.096Z,969.64
2022-12-25T02:08:07.080Z,969.69
2022-12-25T02:09:07.091Z,969.61
2022-12-25T02:10:07.035Z,969.62
2022-12-25T02:11:07.017Z,969.62
2022-12-25T02:12:07.006Z,969.65
2022-12-25T02:13:06.998Z,969.71
2022-12-25T02:14:07.002Z,969.64
2022-12-25T02:15:06.957Z,969.61
2022-12-25T02:16:06.990Z,969.63
2022-12-25T02:17:06.980Z,969.60
2022-12-25T02:18:06.887Z,969.55
2022-12-25T02:19:06.912Z,969.50
2022-12-25T02:20:06.847Z,969.51
2022-12-25T02:21:06.860Z,969.43
2022-12-25T02:22:06.813Z,969.41
2022-12-25T02:23:06.795Z,969.45
2022-12-25T02:24:06.821Z,969.42
2022-12-25T02:25:07.768Z,969.43
2022-12-25T02:26:06.768Z,969.48
2022-12-25T02:27:06.743Z,969.46
2022-12-25T02:28:06.713Z,969.44
2022-12-25T02:29:06.742Z,969.42
2022-12-25T02:30:06.674Z,969.43
2022-12-25T02:31:06.677Z,969.43
2022-12-25T02:32:06.711Z,969.43
2022-12-25T02:33:06.635Z,969.43
2022-12-25T02:34:06.649Z,969.49
2022-12-25T02:35:06.624Z,969.45
2022-12-25T02:36:06.583Z,969.42
2022-12-25T02:37:06.568Z,969.43
2022-12-25T02:38:06.540Z,969.40
2022-12-25T02:39:06.578Z,969.33
2022-12-25T02:40:06.526Z,969.32
2022-12-25T02:41:06.504Z,969.28
2022-12-25T02:42:06.484Z,969.31
2022-12-25T02:43:06.492Z,969.30
2022-12-25T02:44:06.475Z,969.33
2022-12-25T02:45:06.447Z,969.35
2022-12-25T02:46:06.458Z,969.35
2022-12-25T02:47:06.389Z,969.36
2022-12-25T02:48:06.388Z,969.39
2022-12-25T02:49:06.398Z,969.41
2022-12-25T02:50:06.338Z,969.38
2022-12-25T02:51:06.318Z,969.44
2022-12-25T02:52:06.307Z,969.45
2022-12-25T02:53:06.295Z,969.45
2022-12-25T02:54:06.296Z,969.51
2022-12-25T02:55:06.266Z,969.43
2022-12-25T02:56:06.240Z,969.45
2022-12-25T02:57:06.215Z,969.41
2022-12-25T02:58:06.197Z,969.42
2022-12-25T02:59:06.225Z,969.41
2022-12-25T03:00:06.173Z,969.41
2022-12-25T03:01:06.192Z,969.30
2022-12-25T03:02:06.256Z,969.37
2022-12-25T03:03:06.176Z,969.36
2022-12-25T03:04:06.130Z,969.28
2022-12-25T03:05:06.084Z,969.35
2022-12-25T03:06:06.079Z,969.46
2022-12-25T03:07:06.059Z,969.47
2022-12-25T03:08:06.028Z,969.47
2022-12-25T03:09:06.055Z,969.47
2022-12-25T03:10:06.001Z,969.51
2022-12-25T03:11:05.979Z,969.55
2022-12-25T03:12:05.959Z,969.53
2022-12-25T03:13:05.952Z,969.52
2022-12-25T03:14:05.971Z,969.57
2022-12-25T03:15:05.920Z,969.58
2022-12-25T03:16:05.907Z,969.55
2022-12-25T03:17:05.936Z,969.63
2022-12-25T03:18:05.868Z,969.52
2022-12-25T03:19:05.870Z,969.51
2022-12-25T03:20:05.834Z,969.58
2022-12-25T03:21:05.848Z,969.56
2022-12-25T03:22:05.801Z,969.53
2022-12-25T03:23:05.774Z,969.52
2022-12-25T03:24:05.810Z,969.51
2022-12-25T03:25:05.734Z,969.51
2022-12-25T03:26:05.720Z,969.51
2022-12-25T03:27:05.734Z,969.54
2022-12-25T03:28:05.679Z,969.52
2022-12-25T03:29:05.700Z,969.54
2022-12-25T03:30:05.659Z,969.40
2022-12-25T03:31:05.693Z,969.50
2022-12-25T03:32:05.626Z,969.47
2022-12-25T03:33:23.276Z,969.51
2022-12-25T03:34:07.623Z,969.50
2022-12-25T03:35:06.502Z,969.54
2022-12-25T03:36:05.549Z,969.51
2022-12-25T03:37:05.536Z,969.52
2022-12-25T03:38:05.511Z,969.46
2022-12-25T03:39:05.524Z,969.39
2022-12-25T03:40:05.481Z,969.49
2022-12-25T03:41:05.467Z,969.46
2022-12-25T03:42:05.535Z,969.54
2022-12-25T03:43:05.436Z,969.50
2022-12-25T03:44:05.463Z,969.54
2022-12-25T03:45:05.392Z,969.53
2022-12-25T03:46:05.403Z,969.49
2022-12-25T03:47:05.380Z,969.44
2022-12-25T03:48:05.356Z,969.42
2022-12-25T03:49:05.370Z,969.32
2022-12-25T03:50:05.316Z,969.38
2022-12-25T03:51:05.303Z,969.28
2022-12-25T03:52:05.292Z,969.31
2022-12-25T03:53:05.257Z,969.27
2022-12-25T03:54:05.246Z,969.23
2022-12-25T03:55:05.255Z,969.27
2022-12-25T03:56:05.213Z,969.19
2022-12-25T03:57:05.195Z,969.19
2022-12-25T03:58:05.187Z,969.17
2022-12-25T03:59:05.152Z,969.18
2022-12-25T04:00:05.188Z,969.16
2022-12-25T04:01:05.143Z,969.18
2022-12-25T04:02:05.242Z,969.18
2022-12-25T04:03:05.110Z,969.24
2022-12-25T04:04:06.082Z,969.21
2022-12-25T04:05:05.250Z,969.24
2022-12-25T04:06:05.036Z,969.20
2022-12-25T04:07:05.035Z,969.22
2022-12-25T04:08:05.019Z,969.19
2022-12-25T04:09:04.994Z,969.28
2022-12-25T04:10:05.008Z,969.25
2022-12-25T04:11:04.956Z,969.28
2022-12-25T04:12:04.951Z,969.24
2022-12-25T04:13:04.915Z,969.23
2022-12-25T04:14:04.900Z,969.28
2022-12-25T04:15:04.992Z,969.20
2022-12-25T04:16:04.897Z,969.26
2022-12-25T04:17:04.847Z,969.24
2022-12-25T04:18:04.829Z,969.18
2022-12-25T04:19:04.812Z,969.13
2022-12-25T04:20:04.830Z,969.19
2022-12-25T04:21:04.776Z,969.13
2022-12-25T04:22:04.774Z,969.13
2022-12-25T04:23:04.747Z,969.08
2022-12-25T04:24:04.735Z,969.09
2022-12-25T04:25:04.756Z,969.10
2022-12-25T04:26:04.706Z,969.09
2022-12-25T04:27:04.680Z,969.13
2022-12-25T04:28:04.660Z,969.14
2022-12-25T04:29:04.641Z,969.09
2022-12-25T04:30:04.670Z,969.08
2022-12-25T04:31:04.648Z,969.04
2022-12-25T04:32:04.593Z,969.08
2022-12-25T04:33:04.581Z,969.05
2022-12-25T04:34:04.558Z,969.05
2022-12-25T04:35:04.567Z,969.05
2022-12-25T04:36:04.531Z,969.08
2022-12-25T04:37:04.523Z,969.03
2022-12-25T04:38:04.494Z,969.03
2022-12-25T04:39:04.481Z,969.04
2022-12-25T04:40:04.492Z,969.07
2022-12-25T04:41:04.451Z,969.10
2022-12-25T04:42:04.427Z,969.12
2022-12-25T04:43:04.409Z,969.15
2022-12-25T04:44:04.388Z,969.12
2022-12-25T04:45:04.418Z,969.10
2022-12-25T04:46:04.375Z,969.03
2022-12-25T04:47:10.728Z,969.04
2022-12-25T04:48:06.341Z,968.92
2022-12-25T04:49:04.314Z,968.88
2022-12-25T04:50:04.344Z,968.82
2022-12-25T04:51:04.277Z,968.76
2022-12-25T04:52:04.270Z,968.78
2022-12-25T04:53:04.235Z,968.74
2022-12-25T04:54:04.233Z,968.69
2022-12-25T04:55:04.232Z,968.65
2022-12-25T04:56:04.192Z,968.57
2022-12-25T04:57:04.187Z,968.56
2022-12-25T04:58:04.172Z,968.55
2022-12-25T04:59:04.132Z,968.58
2022-12-25T05:00:04.171Z,968.63
2022-12-25T05:01:04.127Z,968.64
2022-12-25T05:02:04.204Z,968.71
2022-12-25T05:03:04.215Z,968.72
2022-12-25T05:04:04.066Z,968.76
2022-12-25T05:05:04.071Z,968.80
2022-12-25T05:06:04.069Z,968.83
2022-12-25T05:07:04.035Z,968.95
2022-12-25T05:08:03.992Z,968.93
2022-12-25T05:09:04.021Z,969.00
2022-12-25T05:10:03.978Z,968.93
2022-12-25T05:11:03.966Z,968.95
2022-12-25T05:12:03.926Z,968.94
2022-12-25T05:13:03.902Z,969.00
2022-12-25T05:14:03.906Z,968.96
2022-12-25T05:15:03.914Z,968.99
2022-12-25T05:16:04.008Z,969.09
2022-12-25T05:17:03.837Z,969.09
2022-12-25T05:18:03.847Z,969.02
2022-12-25T05:19:03.804Z,969.05
2022-12-25T05:20:03.832Z,969.04
2022-12-25T05:21:03.776Z,969.02
2022-12-25T05:22:03.760Z,969.11
2022-12-25T05:23:03.828Z,969.12
2022-12-25T05:24:03.734Z,969.18
2022-12-25T05:25:03.747Z,969.16
2022-12-25T05:26:03.692Z,969.20
2022-12-25T05:27:03.705Z,969.12
2022-12-25T05:28:03.648Z,969.13
2022-12-25T05:29:03.641Z,969.15
2022-12-25T05:30:03.652Z,969.15
2022-12-25T05:31:03.653Z,969.15
2022-12-25T05:32:03.576Z,969.16
2022-12-25T05:33:03.573Z,969.14
2022-12-25T05:34:03.550Z,969.15
2022-12-25T05:35:03.568Z,969.09
2022-12-25T05:36:03.570Z,969.18
2022-12-25T05:37:03.510Z,969.17
2022-12-25T05:38:03.483Z,969.13
2022-12-25T05:39:03.464Z,969.17
2022-12-25T05:40:03.482Z,969.16
2022-12-25T05:41:03.457Z,969.13
2022-12-25T05:42:03.430Z,969.12
2022-12-25T05:43:03.399Z,969.05
2022-12-25T05:44:03.405Z,969.07
2022-12-25T05:45:03.398Z,969.11
2022-12-25T05:46:03.359Z,969.13
2022-12-25T05:47:03.375Z,969.08
2022-12-25T05:48:03.333Z,969.05
2022-12-25T05:49:03.291Z,969.02
2022-12-25T05:50:03.327Z,969.03
2022-12-25T05:51:03.268Z,969.02
2022-12-25T05:52:03.244Z,969.01
2022-12-25T05:53:08.046Z,968.99
2022-12-25T05:54:05.216Z,969.00
2022-12-25T05:55:03.238Z,969.03
2022-12-25T05:56:03.202Z,968.99
2022-12-25T05:57:03.176Z,969.00
2022-12-25T05:58:03.155Z,969.04
2022-12-25T05:59:03.133Z,969.00
2022-12-25T06:00:03.151Z,969.03
2022-12-25T06:01:03.103Z,968.98
2022-12-25T06:02:03.208Z,968.94
2022-12-25T06:03:04.201Z,968.99
2022-12-25T06:04:08.420Z,968.99
2022-12-25T06:05:05.073Z,968.97
2022-12-25T06:06:03.010Z,968.96
2022-12-25T06:07:02.994Z,968.98
2022-12-25T06:08:02.978Z,968.95
2022-12-25T06:09:02.955Z,968.91
2022-12-25T06:10:03.007Z,969.00
2022-12-25T06:11:02.918Z,969.02
2022-12-25T06:12:02.933Z,969.01
2022-12-25T06:13:02.890Z,969.00
2022-12-25T06:14:02.902Z,968.95
2022-12-25T06:15:02.902Z,968.97
2022-12-25T06:16:02.910Z,968.98
2022-12-25T06:17:02.849Z,968.96
2022-12-25T06:18:02.813Z,968.94
2022-12-25T06:19:02.790Z,968.91
2022-12-25T06:20:02.795Z,968.88
2022-12-25T06:21:02.749Z,968.88
2022-12-25T06:22:02.732Z,968.94
2022-12-25T06:23:02.737Z,968.96
2022-12-25T06:24:02.788Z,968.93
2022-12-25T06:25:02.717Z,969.00
2022-12-25T06:26:02.663Z,968.97
2022-12-25T06:27:02.642Z,968.87
2022-12-25T06:28:02.632Z,968.89
2022-12-25T06:29:02.622Z,968.86
2022-12-25T06:30:02.633Z,968.80
2022-12-25T06:31:02.611Z,968.74
2022-12-25T06:32:02.657Z,968.72
2022-12-25T06:33:02.535Z,968.69
2022-12-25T06:34:02.527Z,968.71
2022-12-25T06:35:02.509Z,968.70
2022-12-25T06:36:02.518Z,968.72
2022-12-25T06:37:02.490Z,968.75
2022-12-25T06:38:02.451Z,968.72
2022-12-25T06:39:02.453Z,968.73
2022-12-25T06:40:02.439Z,968.78
2022-12-25T06:41:02.432Z,968.71
2022-12-25T06:42:02.388Z,968.72
2022-12-25T06:43:02.372Z,968.70
2022-12-25T06:44:02.370Z,968.79
2022-12-25T06:45:02.338Z,968.70
2022-12-25T06:46:02.428Z,968.61
2022-12-25T06:47:02.317Z,968.61
2022-12-25T06:48:02.304Z,968.58
2022-12-25T06:49:02.265Z,968.59
2022-12-25T06:50:02.267Z,968.58
2022-12-25T06:51:02.263Z,968.50
2022-12-25T06:52:02.222Z,968.50
2022-12-25T06:53:02.198Z,968.58
2022-12-25T06:54:02.185Z,968.54
2022-12-25T06:55:02.181Z,968.58
2022-12-25T06:56:02.209Z,968.60
2022-12-25T06:57:02.136Z,968.63
2022-12-25T06:58:02.125Z,968.72
2022-12-25T06:59:02.093Z,968.69
2022-12-25T07:00:02.131Z,968.69
2022-12-25T07:01:02.159Z,968.68
2022-12-25T07:02:02.198Z,968.75
2022-12-25T07:03:02.125Z,968.74
2022-12-25T07:04:02.006Z,968.84
2022-12-25T07:05:02.003Z,968.79
2022-12-25T07:06:02.021Z,968.80
2022-12-25T07:07:08.306Z,968.88
2022-12-25T07:08:03.948Z,968.80
2022-12-25T07:09:01.933Z,968.90
2022-12-25T07:10:01.918Z,968.84
2022-12-25T07:11:01.939Z,968.77
2022-12-25T07:12:01.863Z,968.80
2022-12-25T07:13:01.857Z,968.72
2022-12-25T07:14:01.854Z,968.73
2022-12-25T07:15:01.819Z,968.67
2022-12-25T07:16:01.882Z,968.69
2022-12-25T07:17:01.847Z,968.68
2022-12-25T07:18:01.789Z,968.68
2022-12-25T07:19:01.770Z,968.78
2022-12-25T07:20:01.749Z,968.63
2022-12-25T07:21:01.748Z,968.59
2022-12-25T07:22:01.705Z,968.57
2022-12-25T07:23:01.686Z,968.58
2022-12-25T07:24:01.672Z,968.42
2022-12-25T07:25:01.665Z,968.36
2022-12-25T07:26:01.681Z,968.38
2022-12-25T07:27:01.628Z,968.38
2022-12-25T07:28:01.602Z,968.36
2022-12-25T07:29:01.606Z,968.36
2022-12-25T07:30:01.565Z,968.32
2022-12-25T07:31:01.582Z,968.35
2022-12-25T07:32:01.603Z,968.37
2022-12-25T07:33:01.526Z,968.32
2022-12-25T07:34:01.502Z,968.33
2022-12-25T07:35:01.508Z,968.39
2022-12-25T07:36:01.502Z,968.38
2022-12-25T07:37:01.457Z,968.43
2022-12-25T07:38:01.434Z,968.41
2022-12-25T07:39:01.453Z,968.42
2022-12-25T07:40:01.523Z,968.55
2022-12-25T07:41:01.427Z,968.48
2022-12-25T07:42:01.363Z,968.43
2022-12-25T07:43:01.353Z,968.50
2022-12-25T07:44:01.329Z,968.48
2022-12-25T07:45:01.311Z,968.47
2022-12-25T07:46:01.393Z,968.52
2022-12-25T07:47:01.351Z,968.53
2022-12-25T07:48:05.169Z,968.50
2022-12-25T07:49:03.237Z,968.51
2022-12-25T07:50:01.256Z,968.43
2022-12-25T07:51:01.251Z,968.46
2022-12-25T07:52:01.226Z,968.37
2022-12-25T07:53:01.178Z,968.40
2022-12-25T07:54:01.176Z,968.30
2022-12-25T07:55:01.214Z,968.33
2022-12-25T07:56:01.220Z,968.24
2022-12-25T07:57:01.111Z,968.19
2022-12-25T07:58:01.101Z,968.13
2022-12-25T07:59:01.114Z,968.08
2022-12-25T08:00:01.074Z,967.94
2022-12-25T08:01:01.215Z,967.89
2022-12-25T08:02:01.317Z,967.88
2022-12-25T08:03:01.205Z,967.89
2022-12-25T08:04:01.166Z,967.88
2022-12-25T08:05:00.984Z,967.88
2022-12-25T08:06:01.010Z,967.94
2022-12-25T08:07:00.942Z,968.03
2022-12-25T08:08:00.947Z,968.03
2022-12-25T08:09:00.924Z,968.10
2022-12-25T08:10:00.891Z,968.10
2022-12-25T08:11:00.964Z,968.10
2022-12-25T08:12:00.883Z,968.20
2022-12-25T08:13:00.844Z,968.18
2022-12-25T08:14:00.837Z,968.22
2022-12-25T08:15:00.803Z,968.24
2022-12-25T08:16:00.820Z,968.24
2022-12-25T08:17:00.841Z,968.27
2022-12-25T08:18:00.742Z,968.20
2022-12-25T08:19:00.734Z,968.12
2022-12-25T08:20:00.735Z,968.20
2022-12-25T08:21:00.745Z,968.14
2022-12-25T08:22:00.700Z,968.17
2022-12-25T08:23:00.667Z,968.10
2022-12-25T08:24:00.654Z,968.16
2022-12-25T08:25:00.630Z,968.11
2022-12-25T08:26:05.014Z,968.02
2022-12-25T08:27:02.610Z,967.98
2022-12-25T08:28:00.577Z,968.08
2022-12-25T08:29:00.568Z,968.14
2022-12-25T08:30:00.561Z,968.14
2022-12-25T08:31:00.594Z,968.23
2022-12-25T08:32:00.522Z,968.05
2022-12-25T08:33:00.618Z,968.08
2022-12-25T08:34:00.474Z,968.04
2022-12-25T08:35:00.481Z,968.01
2022-12-25T08:36:00.481Z,968.00
2022-12-25T08:37:00.419Z,968.04
2022-12-25T08:38:00.413Z,968.11
2022-12-25T08:39:03.307Z,968.11
2022-12-25T08:40:01.407Z,968.06
2022-12-25T08:41:00.395Z,968.12
2022-12-25T08:42:00.334Z,968.21
2022-12-25T08:43:00.427Z,967.97
2022-12-25T08:44:00.311Z,967.98
2022-12-25T08:45:00.284Z,967.91
2022-12-25T08:46:00.341Z,967.92
2022-12-25T08:47:00.253Z,967.96
2022-12-25T08:48:00.219Z,968.07
2022-12-25T08:49:00.245Z,968.06
2022-12-25T08:50:00.228Z,967.95
2022-12-25T08:51:00.228Z,967.96
2022-12-25T08:52:00.172Z,968.04
2022-12-25T08:53:00.349Z,968.04
2022-12-25T08:54:00.171Z,967.98
2022-12-25T08:55:00.123Z,968.03
2022-12-25T08:56:00.262Z,968.09
2022-12-25T08:57:02.890Z,968.15
2022-12-25T08:58:01.067Z,968.19
2022-12-25T08:59:00.038Z,968.07
2022-12-25T09:00:00.032Z,968.07
2022-12-25T09:01:00.144Z,968.05
2022-12-25T09:02:00.072Z,968.10
2022-12-25T09:03:00.118Z,967.84
2022-12-25T09:03:59.958Z,967.93
2022-12-25T09:04:59.957Z,967.84
2022-12-25T09:05:59.970Z,967.89
2022-12-25T09:06:59.930Z,967.80
2022-12-25T09:07:59.894Z,967.97
2022-12-25T09:08:59.861Z,968.07
2022-12-25T09:09:59.846Z,968.01
2022-12-25T09:10:59.880Z,967.89
2022-12-25T09:11:59.827Z,967.92
2022-12-25T09:12:59.965Z,967.85
2022-12-25T09:13:59.780Z,967.92
2022-12-25T09:14:59.793Z,967.93
2022-12-25T09:15:59.857Z,967.87
2022-12-25T09:16:59.735Z,967.88
2022-12-25T09:17:59.724Z,967.81
2022-12-25T09:18:59.695Z,967.80
2022-12-25T09:19:59.674Z,967.86
2022-12-25T09:20:59.685Z,967.87
2022-12-25T09:21:59.662Z,967.83
2022-12-25T09:22:59.673Z,967.94
2022-12-25T09:23:59.632Z,967.84
2022-12-25T09:24:59.621Z,967.79
2022-12-25T09:25:59.642Z,967.66
2022-12-25T09:26:59.582Z,967.66
2022-12-25T09:27:59.556Z,967.56
2022-12-25T09:28:59.537Z,967.53
2022-12-25T09:29:59.508Z,967.54
2022-12-25T09:30:59.575Z,967.66
2022-12-25T09:31:59.479Z,967.73
2022-12-25T09:32:59.446Z,967.68
2022-12-25T09:33:59.472Z,967.63
2022-12-25T09:34:59.426Z,967.68
2022-12-25T09:35:59.460Z,967.69
2022-12-25T09:36:59.417Z,967.69
2022-12-25T09:37:59.384Z,967.70
2022-12-25T09:38:59.363Z,967.74
2022-12-25T09:39:59.337Z,967.70
2022-12-25T09:40:59.404Z,967.79
2022-12-25T09:41:59.311Z,967.60
2022-12-25T09:42:59.449Z,967.71
2022-12-25T09:43:59.306Z,967.63
2022-12-25T09:44:59.263Z,967.61
2022-12-25T09:45:59.278Z,967.58
2022-12-25T09:46:59.309Z,967.63
2022-12-25T09:47:59.241Z,967.55
2022-12-25T09:48:59.189Z,967.46
2022-12-25T09:49:59.163Z,967.45
2022-12-25T09:50:59.191Z,967.53
2022-12-25T09:51:59.199Z,967.45
2022-12-25T09:52:59.141Z,967.44
2022-12-25T09:53:59.095Z,967.57
2022-12-25T09:54:59.108Z,967.62
2022-12-25T09:55:59.062Z,967.48
2022-12-25T09:56:59.091Z,967.59
2022-12-25T09:57:59.033Z,967.45
2022-12-25T09:58:59.011Z,967.50
2022-12-25T09:59:58.994Z,967.48
2022-12-25T10:00:58.982Z,967.53
2022-12-25T10:01:59.228Z,967.53
2022-12-25T10:02:59.239Z,967.50
2022-12-25T10:03:58.989Z,967.45
2022-12-25T10:04:58.910Z,967.52
2022-12-25T10:05:58.913Z,967.48
2022-12-25T10:06:58.920Z,967.40
2022-12-25T10:07:58.873Z,967.50
2022-12-25T10:08:58.853Z,967.35
2022-12-25T10:09:58.823Z,967.37
2022-12-25T10:10:58.807Z,967.34
2022-12-25T10:11:58.847Z,967.43
2022-12-25T10:12:58.775Z,967.30
2022-12-25T10:13:58.745Z,967.25
2022-12-25T10:14:58.779Z,967.37
2022-12-25T10:15:58.760Z,967.37
2022-12-25T10:16:58.728Z,967.32
2022-12-25T10:17:58.683Z,967.25
2022-12-25T10:18:58.686Z,967.34
2022-12-25T10:19:58.670Z,967.33
2022-12-25T10:20:58.620Z,967.54
2022-12-25T10:21:58.671Z,967.44
2022-12-25T10:22:58.602Z,967.34
2022-12-25T10:23:58.620Z,967.30
2022-12-25T10:24:58.564Z,967.23
2022-12-25T10:25:58.577Z,967.31
2022-12-25T10:26:58.556Z,967.27
2022-12-25T10:27:58.497Z,967.26
2022-12-25T10:28:58.532Z,967.23
2022-12-25T10:29:58.499Z,967.23
2022-12-25T10:30:58.524Z,967.13
2022-12-25T10:31:58.474Z,967.11
2022-12-25T10:32:58.439Z,967.19
2022-12-25T10:33:58.416Z,967.11
2022-12-25T10:34:58.403Z,967.04
2022-12-25T10:35:58.370Z,967.12
2022-12-25T10:36:58.408Z,967.00
2022-12-25T10:37:58.352Z,967.03
2022-12-25T10:38:58.331Z,967.06
2022-12-25T10:39:58.310Z,967.12
2022-12-25T10:40:58.284Z,967.04
2022-12-25T10:41:58.298Z,967.03
2022-12-25T10:42:58.251Z,967.03
2022-12-25T10:43:58.243Z,967.09
2022-12-25T10:44:58.221Z,967.07
2022-12-25T10:45:58.262Z,967.11
2022-12-25T10:46:58.294Z,967.08
2022-12-25T10:48:04.959Z,967.14
2022-12-25T10:49:00.160Z,967.12
2022-12-25T10:49:58.292Z,967.10
2022-12-25T10:50:58.105Z,967.13
2022-12-25T10:51:58.153Z,966.93
2022-12-25T10:52:58.073Z,966.83
2022-12-25T10:53:58.069Z,966.79
2022-12-25T10:54:58.066Z,966.82
2022-12-25T10:55:58.026Z,966.88
2022-12-25T10:56:58.063Z,966.94
2022-12-25T10:57:58.157Z,966.98
2022-12-25T10:58:57.971Z,966.93
2022-12-25T10:59:57.963Z,966.96
2022-12-25T11:00:57.956Z,966.92
2022-12-25T11:01:58.093Z,966.94
2022-12-25T11:02:58.205Z,966.94
2022-12-25T11:03:57.959Z,966.89
2022-12-25T11:04:57.871Z,966.94
2022-12-25T11:05:57.858Z,966.88
2022-12-25T11:06:57.881Z,966.94
2022-12-25T11:07:57.843Z,966.94
2022-12-25T11:08:57.801Z,966.86
2022-12-25T11:10:02.685Z,966.88
2022-12-25T11:10:59.768Z,966.87
2022-12-25T11:11:57.783Z,966.84
2022-12-25T11:12:57.744Z,966.85
2022-12-25T11:13:57.735Z,966.96
2022-12-25T11:14:57.751Z,966.86
2022-12-25T11:15:57.741Z,966.75
2022-12-25T11:16:57.705Z,966.76
2022-12-25T11:17:57.657Z,966.88
2022-12-25T11:18:57.631Z,966.72
2022-12-25T11:19:57.614Z,966.80
2022-12-25T11:20:57.607Z,966.81
2022-12-25T11:21:57.627Z,966.81
2022-12-25T11:22:57.564Z,966.78
2022-12-25T11:23:57.549Z,966.82
2022-12-25T11:24:57.559Z,966.84
2022-12-25T11:25:57.519Z,966.85
2022-12-25T11:26:57.530Z,966.83
2022-12-25T11:27:57.486Z,966.86
2022-12-25T11:28:57.477Z,966.80
2022-12-25T11:29:57.474Z,966.81
2022-12-25T11:30:57.486Z,966.77
2022-12-25T11:31:57.443Z,966.73
2022-12-25T11:32:57.393Z,966.72
2022-12-25T11:33:57.397Z,966.65
2022-12-25T11:34:57.370Z,966.66
2022-12-25T11:35:57.339Z,966.65
2022-12-25T11:36:57.370Z,966.70
2022-12-25T11:37:57.322Z,966.67
2022-12-25T11:38:57.300Z,966.74
2022-12-25T11:39:57.290Z,966.81
2022-12-25T11:40:57.254Z,966.78
2022-12-25T11:41:57.274Z,966.77
2022-12-25T11:42:58.243Z,966.77
2022-12-25T11:43:57.217Z,966.67
2022-12-25T11:44:57.186Z,966.70
2022-12-25T11:45:57.180Z,966.59
2022-12-25T11:46:57.210Z,966.60
2022-12-25T11:47:57.152Z,966.51
2022-12-25T11:48:57.150Z,966.52
2022-12-25T11:50:00.451Z,966.56
2022-12-25T11:50:58.107Z,966.49
2022-12-25T11:51:57.114Z,966.50
2022-12-25T11:52:57.066Z,966.58
2022-12-25T11:53:57.031Z,966.55
2022-12-25T11:54:57.019Z,966.52
2022-12-25T11:55:57.001Z,966.53
2022-12-25T11:56:57.013Z,966.62
2022-12-25T11:57:56.969Z,966.58
2022-12-25T11:58:56.980Z,966.59
2022-12-25T11:59:56.974Z,966.57
2022-12-25T12:00:56.927Z,966.52
2022-12-25T12:01:57.074Z,966.56
2022-12-25T12:02:56.990Z,966.50
2022-12-25T12:03:56.918Z,966.48
2022-12-25T12:04:56.852Z,966.47
2022-12-25T12:05:56.832Z,966.40
2022-12-25T12:06:56.857Z,966.39
2022-12-25T12:07:56.799Z,966.29
2022-12-25T12:08:56.789Z,966.36
2022-12-25T12:09:56.778Z,966.37
2022-12-25T12:10:56.760Z,966.24
2022-12-25T12:11:56.762Z,966.22
2022-12-25T12:12:56.717Z,966.27
2022-12-25T12:13:56.710Z,966.28
2022-12-25T12:14:56.676Z,966.19
2022-12-25T12:15:56.713Z,966.25
2022-12-25T12:16:56.760Z,966.12
2022-12-25T12:17:56.672Z,966.08
2022-12-25T12:18:56.627Z,966.16
2022-12-25T12:19:56.612Z,966.13
2022-12-25T12:20:56.578Z,966.18
2022-12-25T12:21:56.585Z,966.08
2022-12-25T12:22:56.578Z,966.08
2022-12-25T12:23:56.540Z,965.97
2022-12-25T12:24:56.507Z,965.96
2022-12-25T12:25:56.493Z,965.92
2022-12-25T12:26:56.475Z,965.92
2022-12-25T12:28:02.911Z,965.96